sensor_id;sensor_type;location;lat;lon;timestamp;temperature;humidity
22442;DHT22;11388;54.456;9.752;2023-02-16T00:00:47;5.00;99.90
22442;DHT22;11388;54.456;9.752;2023-02-16T00:03:16;5.00;99.90
22442;DHT22;11388;54.456;9.752;2023-02-16T00:05:42;5.00;99.90
22442;DHT22;11388;54.456;9.752;2023-02-16T00:08:08;5.10;99.90
22442;DHT22;11388;54.456;9.752;2023-02-16T00:10:35;5.20;99.90
22442;DHT22;11388;54.456;9.752;2023-02-16T00:13:04;5.20;99.90
22442;DHT22;11388;54.456;9.752;2023-02-16T00:15:58;5.20;99.90
22442;DHT22;11388;54.456;9.752;2023-02-16T00:18:23;5.20;99.90
22442;DHT22;11388;54.456;9.752;2023-02-16T00:20:49;5.10;99.90
22442;DHT22;11388;54.456;9.752;2023-02-16T00:23:15;5.10;99.90
22442;DHT22;11388;54.456;9.752;2023-02-16T00:25:41;5.00;99.90
22442;DHT22;11388;54.456;9.752;2023-02-16T00:28:13;5.10;99.90
22442;DHT22;11388;54.456;9.752;2023-02-16T00:30:40;5.10;99.90
22442;DHT22;11388;54.456;9.752;2023-02-16T00:33:17;5.10;99.90
22442;DHT22;11388;54.456;9.752;2023-02-16T00:35:43;5.10;99.90
22442;DHT22;11388;54.456;9.752;2023-02-16T00:38:09;5.10;99.90
22442;DHT22;11388;54.456;9.752;2023-02-16T00:40:35;5.20;99.90
22442;DHT22;11388;54.456;9.752;2023-02-16T00:43:01;5.10;99.90
22442;DHT22;11388;54.456;9.752;2023-02-16T00:45:26;5.20;99.90
22442;DHT22;11388;54.456;9.752;2023-02-16T00:47:53;5.20;99.90
22442;DHT22;11388;54.456;9.752;2023-02-16T00:50:31;5.10;99.90
22442;DHT22;11388;54.456;9.752;2023-02-16T00:52:57;5.20;99.90
22442;DHT22;11388;54.456;9.752;2023-02-16T00:55:31;5.10;99.90
22442;DHT22;11388;54.456;9.752;2023-02-16T00:58:26;5.10;99.90
22442;DHT22;11388;54.456;9.752;2023-02-16T01:01:06;5.10;99.90
22442;DHT22;11388;54.456;9.752;2023-02-16T01:03:32;5.10;99.90
22442;DHT22;11388;54.456;9.752;2023-02-16T01:05:58;5.10;99.90
22442;DHT22;11388;54.456;9.752;2023-02-16T01:08:42;5.10;99.90
22442;DHT22;11388;54.456;9.752;2023-02-16T01:11:26;5.00;99.90
22442;DHT22;11388;54.456;9.752;2023-02-16T01:13:53;5.00;99.90
22442;DHT22;11388;54.456;9.752;2023-02-16T01:16:30;4.90;99.90
22442;DHT22;11388;54.456;9.752;2023-02-16T01:18:57;5.00;99.90
22442;DHT22;11388;54.456;9.752;2023-02-16T01:21:23;5.00;99.90
22442;DHT22;11388;54.456;9.752;2023-02-16T01:23:49;5.00;99.90
22442;DHT22;11388;54.456;9.752;2023-02-16T01:26:16;5.10;99.90
22442;DHT22;11388;54.456;9.752;2023-02-16T01:28:43;5.10;99.90
22442;DHT22;11388;54.456;9.752;2023-02-16T01:31:10;5.00;99.90
22442;DHT22;11388;54.456;9.752;2023-02-16T01:33:36;5.00;99.90
22442;DHT22;11388;54.456;9.752;2023-02-16T01:36:03;5.00;99.90
22442;DHT22;11388;54.456;9.752;2023-02-16T01:38:29;5.10;99.90
22442;DHT22;11388;54.456;9.752;2023-02-16T01:41:11;5.10;99.90
22442;DHT22;11388;54.456;9.752;2023-02-16T01:44:01;5.00;99.90
22442;DHT22;11388;54.456;9.752;2023-02-16T01:49:50;5.10;99.90
22442;DHT22;11388;54.456;9.752;2023-02-16T01:54:59;4.90;99.90
22442;DHT22;11388;54.456;9.752;2023-02-16T01:57:47;4.90;99.90
22442;DHT22;11388;54.456;9.752;2023-02-16T02:00:27;4.90;99.90
22442;DHT22;11388;54.456;9.752;2023-02-16T02:02:57;4.90;99.90
22442;DHT22;11388;54.456;9.752;2023-02-16T02:05:44;4.90;99.90
22442;DHT22;11388;54.456;9.752;2023-02-16T02:08:26;4.80;99.90
22442;DHT22;11388;54.456;9.752;2023-02-16T02:11:07;4.80;99.90
22442;DHT22;11388;54.456;9.752;2023-02-16T02:16:20;4.90;99.90
22442;DHT22;11388;54.456;9.752;2023-02-16T02:18:46;4.90;99.90
22442;DHT22;11388;54.456;9.752;2023-02-16T02:22:00;4.90;99.90
22442;DHT22;11388;54.456;9.752;2023-02-16T02:32:57;5.00;99.90
22442;DHT22;11388;54.456;9.752;2023-02-16T02:35:42;4.90;99.90
22442;DHT22;11388;54.456;9.752;2023-02-16T02:44:09;4.90;99.90
22442;DHT22;11388;54.456;9.752;2023-02-16T02:46:35;4.80;99.90
22442;DHT22;11388;54.456;9.752;2023-02-16T02:49:02;4.90;99.90
22442;DHT22;11388;54.456;9.752;2023-02-16T02:51:28;4.90;99.90
22442;DHT22;11388;54.456;9.752;2023-02-16T02:54:07;4.90;99.90
22442;DHT22;11388;54.456;9.752;2023-02-16T02:57:17;4.90;99.90
22442;DHT22;11388;54.456;9.752;2023-02-16T03:03:14;4.90;99.90
22442;DHT22;11388;54.456;9.752;2023-02-16T03:05:51;4.90;99.90
22442;DHT22;11388;54.456;9.752;2023-02-16T03:08:21;5.00;99.90
22442;DHT22;11388;54.456;9.752;2023-02-16T03:10:50;5.00;99.90
22442;DHT22;11388;54.456;9.752;2023-02-16T03:13:38;5.00;99.90
22442;DHT22;11388;54.456;9.752;2023-02-16T03:16:12;5.00;99.90
22442;DHT22;11388;54.456;9.752;2023-02-16T03:18:40;5.00;99.90
22442;DHT22;11388;54.456;9.752;2023-02-16T03:21:27;5.00;99.90
22442;DHT22;11388;54.456;9.752;2023-02-16T03:24:15;5.00;99.90
22442;DHT22;11388;54.456;9.752;2023-02-16T03:27:02;5.00;99.90
22442;DHT22;11388;54.456;9.752;2023-02-16T03:29:51;5.10;99.90
22442;DHT22;11388;54.456;9.752;2023-02-16T03:32:18;5.00;99.90
22442;DHT22;11388;54.456;9.752;2023-02-16T03:34:43;5.00;99.90
22442;DHT22;11388;54.456;9.752;2023-02-16T03:37:09;5.00;99.90
22442;DHT22;11388;54.456;9.752;2023-02-16T03:39:35;5.00;99.90
22442;DHT22;11388;54.456;9.752;2023-02-16T03:42:21;5.00;99.90
22442;DHT22;11388;54.456;9.752;2023-02-16T03:44:47;5.00;99.90
22442;DHT22;11388;54.456;9.752;2023-02-16T03:47:13;5.00;99.90
22442;DHT22;11388;54.456;9.752;2023-02-16T03:49:38;5.00;99.90
22442;DHT22;11388;54.456;9.752;2023-02-16T03:52:04;5.00;99.90
22442;DHT22;11388;54.456;9.752;2023-02-16T03:54:30;5.00;99.90
22442;DHT22;11388;54.456;9.752;2023-02-16T03:56:55;4.90;99.90
22442;DHT22;11388;54.456;9.752;2023-02-16T03:59:21;5.00;99.90
22442;DHT22;11388;54.456;9.752;2023-02-16T04:01:47;4.90;99.90
22442;DHT22;11388;54.456;9.752;2023-02-16T04:04:12;4.90;99.90
22442;DHT22;11388;54.456;9.752;2023-02-16T04:06:39;5.00;99.90
22442;DHT22;11388;54.456;9.752;2023-02-16T04:09:05;5.00;99.90
22442;DHT22;11388;54.456;9.752;2023-02-16T04:11:30;4.90;99.90
22442;DHT22;11388;54.456;9.752;2023-02-16T04:14:14;4.90;99.90
22442;DHT22;11388;54.456;9.752;2023-02-16T04:16:40;5.00;99.90
22442;DHT22;11388;54.456;9.752;2023-02-16T04:19:06;5.00;99.90
22442;DHT22;11388;54.456;9.752;2023-02-16T04:21:32;4.90;99.90
22442;DHT22;11388;54.456;9.752;2023-02-16T04:23:58;5.00;99.90
22442;DHT22;11388;54.456;9.752;2023-02-16T04:26:24;5.00;99.90
22442;DHT22;11388;54.456;9.752;2023-02-16T04:28:49;5.00;99.90
22442;DHT22;11388;54.456;9.752;2023-02-16T04:31:15;5.00;99.90
22442;DHT22;11388;54.456;9.752;2023-02-16T04:33:40;5.00;99.90
22442;DHT22;11388;54.456;9.752;2023-02-16T04:36:07;5.00;99.90
22442;DHT22;11388;54.456;9.752;2023-02-16T04:38:33;5.00;99.90
22442;DHT22;11388;54.456;9.752;2023-02-16T04:40:58;4.90;99.90
22442;DHT22;11388;54.456;9.752;2023-02-16T04:43:24;5.00;99.90
22442;DHT22;11388;54.456;9.752;2023-02-16T04:45:50;5.00;99.90
22442;DHT22;11388;54.456;9.752;2023-02-16T04:48:16;5.00;99.90
22442;DHT22;11388;54.456;9.752;2023-02-16T04:50:42;5.00;99.90
22442;DHT22;11388;54.456;9.752;2023-02-16T04:53:07;5.00;99.90
22442;DHT22;11388;54.456;9.752;2023-02-16T04:55:33;5.00;99.90
22442;DHT22;11388;54.456;9.752;2023-02-16T04:57:59;5.00;99.90
22442;DHT22;11388;54.456;9.752;2023-02-16T05:00:24;5.00;99.90
22442;DHT22;11388;54.456;9.752;2023-02-16T05:02:50;5.00;99.90
22442;DHT22;11388;54.456;9.752;2023-02-16T05:05:16;5.00;99.90
22442;DHT22;11388;54.456;9.752;2023-02-16T05:07:42;5.00;99.90
22442;DHT22;11388;54.456;9.752;2023-02-16T05:10:07;5.00;99.90
22442;DHT22;11388;54.456;9.752;2023-02-16T05:12:33;5.10;99.90
22442;DHT22;11388;54.456;9.752;2023-02-16T05:15:17;5.10;99.90
22442;DHT22;11388;54.456;9.752;2023-02-16T05:17:43;5.10;99.90
22442;DHT22;11388;54.456;9.752;2023-02-16T05:20:10;5.20;99.90
22442;DHT22;11388;54.456;9.752;2023-02-16T05:22:36;5.30;99.90
22442;DHT22;11388;54.456;9.752;2023-02-16T05:25:04;5.30;99.90
22442;DHT22;11388;54.456;9.752;2023-02-16T05:27:30;5.30;99.90
22442;DHT22;11388;54.456;9.752;2023-02-16T05:29:57;5.30;99.90
22442;DHT22;11388;54.456;9.752;2023-02-16T05:32:23;5.30;99.90
22442;DHT22;11388;54.456;9.752;2023-02-16T05:34:49;5.30;99.90
22442;DHT22;11388;54.456;9.752;2023-02-16T05:37:16;5.30;99.90
22442;DHT22;11388;54.456;9.752;2023-02-16T05:39:42;5.30;99.90
22442;DHT22;11388;54.456;9.752;2023-02-16T05:42:08;5.40;99.90
22442;DHT22;11388;54.456;9.752;2023-02-16T05:44:34;5.50;99.90
22442;DHT22;11388;54.456;9.752;2023-02-16T05:47:00;5.50;99.90
22442;DHT22;11388;54.456;9.752;2023-02-16T05:49:25;5.50;99.90
22442;DHT22;11388;54.456;9.752;2023-02-16T05:51:51;5.50;99.90
22442;DHT22;11388;54.456;9.752;2023-02-16T05:54:17;5.40;99.90
22442;DHT22;11388;54.456;9.752;2023-02-16T05:56:44;5.50;99.90
22442;DHT22;11388;54.456;9.752;2023-02-16T05:59:10;5.50;99.90
22442;DHT22;11388;54.456;9.752;2023-02-16T06:01:35;5.50;99.90
22442;DHT22;11388;54.456;9.752;2023-02-16T06:04:08;5.40;99.90
22442;DHT22;11388;54.456;9.752;2023-02-16T06:06:36;5.50;99.90
22442;DHT22;11388;54.456;9.752;2023-02-16T06:09:03;5.40;99.90
22442;DHT22;11388;54.456;9.752;2023-02-16T06:11:29;5.40;99.90
22442;DHT22;11388;54.456;9.752;2023-02-16T06:14:15;5.40;99.90
22442;DHT22;11388;54.456;9.752;2023-02-16T06:16:43;5.40;99.90
22442;DHT22;11388;54.456;9.752;2023-02-16T06:19:09;5.50;99.90
22442;DHT22;11388;54.456;9.752;2023-02-16T06:21:36;5.40;99.90
22442;DHT22;11388;54.456;9.752;2023-02-16T06:24:02;5.50;99.90
22442;DHT22;11388;54.456;9.752;2023-02-16T06:26:28;5.50;99.90
22442;DHT22;11388;54.456;9.752;2023-02-16T06:28:54;5.50;99.90
22442;DHT22;11388;54.456;9.752;2023-02-16T06:31:20;5.50;99.90
22442;DHT22;11388;54.456;9.752;2023-02-16T06:33:46;5.50;99.90
22442;DHT22;11388;54.456;9.752;2023-02-16T06:36:13;5.50;99.90
22442;DHT22;11388;54.456;9.752;2023-02-16T06:38:39;5.60;99.90
22442;DHT22;11388;54.456;9.752;2023-02-16T06:41:05;5.50;99.90
22442;DHT22;11388;54.456;9.752;2023-02-16T06:43:30;5.60;99.90
22442;DHT22;11388;54.456;9.752;2023-02-16T06:45:56;5.60;99.90
22442;DHT22;11388;54.456;9.752;2023-02-16T06:48:22;5.60;99.90
22442;DHT22;11388;54.456;9.752;2023-02-16T06:50:48;5.70;99.90
22442;DHT22;11388;54.456;9.752;2023-02-16T06:53:14;5.60;99.90
22442;DHT22;11388;54.456;9.752;2023-02-16T06:55:39;5.70;99.90
22442;DHT22;11388;54.456;9.752;2023-02-16T06:58:06;5.60;99.90
22442;DHT22;11388;54.456;9.752;2023-02-16T07:00:32;5.60;99.90
22442;DHT22;11388;54.456;9.752;2023-02-16T07:02:58;5.60;99.90
22442;DHT22;11388;54.456;9.752;2023-02-16T07:05:24;5.50;99.90
22442;DHT22;11388;54.456;9.752;2023-02-16T07:07:50;5.50;99.90
22442;DHT22;11388;54.456;9.752;2023-02-16T07:10:16;5.40;99.90
22442;DHT22;11388;54.456;9.752;2023-02-16T07:12:42;5.40;99.90
22442;DHT22;11388;54.456;9.752;2023-02-16T07:15:08;5.40;99.90
22442;DHT22;11388;54.456;9.752;2023-02-16T07:17:34;5.50;99.90
22442;DHT22;11388;54.456;9.752;2023-02-16T07:20:00;5.50;99.90
22442;DHT22;11388;54.456;9.752;2023-02-16T07:22:26;5.50;99.90
22442;DHT22;11388;54.456;9.752;2023-02-16T07:24:51;5.50;99.90
22442;DHT22;11388;54.456;9.752;2023-02-16T07:27:20;5.50;99.90
22442;DHT22;11388;54.456;9.752;2023-02-16T07:29:46;5.60;99.90
22442;DHT22;11388;54.456;9.752;2023-02-16T07:32:11;5.60;99.90
22442;DHT22;11388;54.456;9.752;2023-02-16T07:34:37;5.60;99.90
22442;DHT22;11388;54.456;9.752;2023-02-16T07:37:03;5.60;99.90
22442;DHT22;11388;54.456;9.752;2023-02-16T07:39:29;5.60;99.90
22442;DHT22;11388;54.456;9.752;2023-02-16T07:41:55;5.60;99.90
22442;DHT22;11388;54.456;9.752;2023-02-16T07:44:21;5.50;99.90
22442;DHT22;11388;54.456;9.752;2023-02-16T07:46:46;5.50;99.90
22442;DHT22;11388;54.456;9.752;2023-02-16T07:49:12;5.40;99.90
22442;DHT22;11388;54.456;9.752;2023-02-16T07:51:37;5.40;99.90
22442;DHT22;11388;54.456;9.752;2023-02-16T07:54:05;5.60;99.90
22442;DHT22;11388;54.456;9.752;2023-02-16T07:56:32;5.60;99.90
22442;DHT22;11388;54.456;9.752;2023-02-16T07:58:59;5.60;99.90
22442;DHT22;11388;54.456;9.752;2023-02-16T08:01:26;5.60;99.90
22442;DHT22;11388;54.456;9.752;2023-02-16T08:03:52;5.50;99.90
22442;DHT22;11388;54.456;9.752;2023-02-16T08:06:18;5.50;99.90
22442;DHT22;11388;54.456;9.752;2023-02-16T08:08:45;5.60;99.90
22442;DHT22;11388;54.456;9.752;2023-02-16T08:11:19;5.70;99.90
22442;DHT22;11388;54.456;9.752;2023-02-16T08:13:45;5.70;99.90
22442;DHT22;11388;54.456;9.752;2023-02-16T08:16:13;5.70;99.90
22442;DHT22;11388;54.456;9.752;2023-02-16T08:18:40;5.80;99.90
22442;DHT22;11388;54.456;9.752;2023-02-16T08:21:12;5.80;99.90
22442;DHT22;11388;54.456;9.752;2023-02-16T08:23:43;5.80;99.90
22442;DHT22;11388;54.456;9.752;2023-02-16T08:26:12;5.90;99.90
22442;DHT22;11388;54.456;9.752;2023-02-16T08:28:38;5.80;99.90
22442;DHT22;11388;54.456;9.752;2023-02-16T08:31:11;5.80;99.90
22442;DHT22;11388;54.456;9.752;2023-02-16T08:33:37;5.70;99.90
22442;DHT22;11388;54.456;9.752;2023-02-16T08:36:04;5.70;99.90
22442;DHT22;11388;54.456;9.752;2023-02-16T08:38:36;5.70;99.90
22442;DHT22;11388;54.456;9.752;2023-02-16T08:41:02;5.70;99.90
22442;DHT22;11388;54.456;9.752;2023-02-16T08:43:28;5.80;99.90
22442;DHT22;11388;54.456;9.752;2023-02-16T08:45:53;5.80;99.90
22442;DHT22;11388;54.456;9.752;2023-02-16T08:48:20;5.80;99.90
22442;DHT22;11388;54.456;9.752;2023-02-16T08:50:49;5.80;99.90
22442;DHT22;11388;54.456;9.752;2023-02-16T08:53:18;6.00;99.90
22442;DHT22;11388;54.456;9.752;2023-02-16T08:55:53;6.00;99.90
22442;DHT22;11388;54.456;9.752;2023-02-16T08:58:20;6.10;99.90
22442;DHT22;11388;54.456;9.752;2023-02-16T09:00:46;6.30;99.90
22442;DHT22;11388;54.456;9.752;2023-02-16T09:03:12;6.20;99.90
22442;DHT22;11388;54.456;9.752;2023-02-16T09:05:38;6.30;99.90
22442;DHT22;11388;54.456;9.752;2023-02-16T09:08:04;6.30;99.90
22442;DHT22;11388;54.456;9.752;2023-02-16T09:10:31;6.40;99.90
22442;DHT22;11388;54.456;9.752;2023-02-16T09:12:57;6.50;99.90
22442;DHT22;11388;54.456;9.752;2023-02-16T09:15:22;6.70;99.90
22442;DHT22;11388;54.456;9.752;2023-02-16T09:17:48;6.80;99.90
22442;DHT22;11388;54.456;9.752;2023-02-16T09:20:14;6.80;99.90
22442;DHT22;11388;54.456;9.752;2023-02-16T09:22:43;6.80;99.90
22442;DHT22;11388;54.456;9.752;2023-02-16T09:25:08;6.80;99.90
22442;DHT22;11388;54.456;9.752;2023-02-16T09:27:36;6.90;99.90
22442;DHT22;11388;54.456;9.752;2023-02-16T09:30:02;6.80;99.90
22442;DHT22;11388;54.456;9.752;2023-02-16T09:32:29;6.90;99.90
22442;DHT22;11388;54.456;9.752;2023-02-16T09:34:55;7.00;99.90
22442;DHT22;11388;54.456;9.752;2023-02-16T09:37:21;7.00;99.90
22442;DHT22;11388;54.456;9.752;2023-02-16T09:39:47;6.90;99.90
22442;DHT22;11388;54.456;9.752;2023-02-16T09:45:08;7.00;99.90
22442;DHT22;11388;54.456;9.752;2023-02-16T09:47:38;7.00;99.90
22442;DHT22;11388;54.456;9.752;2023-02-16T09:50:34;7.10;99.90
22442;DHT22;11388;54.456;9.752;2023-02-16T09:53:10;7.30;99.90
22442;DHT22;11388;54.456;9.752;2023-02-16T09:56:26;7.30;99.90
22442;DHT22;11388;54.456;9.752;2023-02-16T09:58:40;7.20;99.90
22442;DHT22;11388;54.456;9.752;2023-02-16T10:09:25;7.30;99.90
22442;DHT22;11388;54.456;9.752;2023-02-16T10:12:10;7.40;99.90
22442;DHT22;11388;54.456;9.752;2023-02-16T10:14:45;7.50;99.90
22442;DHT22;11388;54.456;9.752;2023-02-16T10:19:52;7.60;99.90
22442;DHT22;11388;54.456;9.752;2023-02-16T10:22:27;7.50;99.90
22442;DHT22;11388;54.456;9.752;2023-02-16T10:25:15;7.40;99.90
22442;DHT22;11388;54.456;9.752;2023-02-16T10:27:45;7.50;99.90
22442;DHT22;11388;54.456;9.752;2023-02-16T10:35:20;7.70;99.90
22442;DHT22;11388;54.456;9.752;2023-02-16T10:38:00;7.70;99.90
22442;DHT22;11388;54.456;9.752;2023-02-16T10:40:29;7.70;99.90
22442;DHT22;11388;54.456;9.752;2023-02-16T10:43:12;7.60;99.90
22442;DHT22;11388;54.456;9.752;2023-02-16T10:45:53;7.60;99.90
22442;DHT22;11388;54.456;9.752;2023-02-16T10:48:22;7.60;99.90
22442;DHT22;11388;54.456;9.752;2023-02-16T10:51:02;7.70;99.90
22442;DHT22;11388;54.456;9.752;2023-02-16T10:55:59;7.70;99.90
22442;DHT22;11388;54.456;9.752;2023-02-16T10:58:32;7.70;99.90
22442;DHT22;11388;54.456;9.752;2023-02-16T11:01:20;7.70;99.90
22442;DHT22;11388;54.456;9.752;2023-02-16T11:03:49;7.70;99.90
22442;DHT22;11388;54.456;9.752;2023-02-16T11:06:19;7.80;99.90
22442;DHT22;11388;54.456;9.752;2023-02-16T11:08:53;7.70;99.90
22442;DHT22;11388;54.456;9.752;2023-02-16T11:11:35;7.70;99.90
22442;DHT22;11388;54.456;9.752;2023-02-16T11:14:10;7.70;99.90
22442;DHT22;11388;54.456;9.752;2023-02-16T11:16:44;7.70;99.90
22442;DHT22;11388;54.456;9.752;2023-02-16T11:19:21;7.70;99.90
22442;DHT22;11388;54.456;9.752;2023-02-16T11:21:54;7.60;99.90
22442;DHT22;11388;54.456;9.752;2023-02-16T11:24:29;7.60;99.90
22442;DHT22;11388;54.456;9.752;2023-02-16T11:27:21;7.60;99.90
22442;DHT22;11388;54.456;9.752;2023-02-16T11:29:46;7.70;99.90
22442;DHT22;11388;54.456;9.752;2023-02-16T11:32:13;7.70;99.90
22442;DHT22;11388;54.456;9.752;2023-02-16T11:34:48;7.70;99.90
22442;DHT22;11388;54.456;9.752;2023-02-16T11:37:28;7.70;99.90
22442;DHT22;11388;54.456;9.752;2023-02-16T11:42:45;7.60;99.90
22442;DHT22;11388;54.456;9.752;2023-02-16T11:45:31;7.60;99.90
22442;DHT22;11388;54.456;9.752;2023-02-16T11:48:06;7.60;99.90
22442;DHT22;11388;54.456;9.752;2023-02-16T11:50:37;7.50;99.90
22442;DHT22;11388;54.456;9.752;2023-02-16T11:55:47;7.40;99.90
22442;DHT22;11388;54.456;9.752;2023-02-16T12:00:47;7.30;99.90
22442;DHT22;11388;54.456;9.752;2023-02-16T12:03:35;7.30;99.90
22442;DHT22;11388;54.456;9.752;2023-02-16T12:15:08;7.50;99.90
22442;DHT22;11388;54.456;9.752;2023-02-16T12:46:30;7.90;99.90
22442;DHT22;11388;54.456;9.752;2023-02-16T12:49:04;7.90;99.90
22442;DHT22;11388;54.456;9.752;2023-02-16T12:51:42;7.90;99.90
22442;DHT22;11388;54.456;9.752;2023-02-16T12:54:15;7.70;99.90
22442;DHT22;11388;54.456;9.752;2023-02-16T12:56:44;7.80;99.90
22442;DHT22;11388;54.456;9.752;2023-02-16T12:59:25;7.80;99.90
22442;DHT22;11388;54.456;9.752;2023-02-16T13:01:57;7.90;99.90
22442;DHT22;11388;54.456;9.752;2023-02-16T13:04:37;7.90;99.90
22442;DHT22;11388;54.456;9.752;2023-02-16T13:07:15;7.90;99.90
22442;DHT22;11388;54.456;9.752;2023-02-16T13:10:11;7.90;99.90
22442;DHT22;11388;54.456;9.752;2023-02-16T13:15:33;7.90;99.90
22442;DHT22;11388;54.456;9.752;2023-02-16T13:20:47;7.80;99.90
22442;DHT22;11388;54.456;9.752;2023-02-16T13:31:59;7.90;99.90
22442;DHT22;11388;54.456;9.752;2023-02-16T13:43:35;7.90;99.90
22442;DHT22;11388;54.456;9.752;2023-02-16T13:46:11;8.00;99.90
22442;DHT22;11388;54.456;9.752;2023-02-16T13:48:47;7.90;99.90
22442;DHT22;11388;54.456;9.752;2023-02-16T13:51:20;7.90;99.90
22442;DHT22;11388;54.456;9.752;2023-02-16T13:53:58;8.00;99.90
22442;DHT22;11388;54.456;9.752;2023-02-16T13:58:53;8.10;99.90
22442;DHT22;11388;54.456;9.752;2023-02-16T14:03:57;8.00;99.90
22442;DHT22;11388;54.456;9.752;2023-02-16T14:14:29;8.10;99.90
22442;DHT22;11388;54.456;9.752;2023-02-16T14:19:48;8.10;99.90
22442;DHT22;11388;54.456;9.752;2023-02-16T14:22:17;8.20;99.90
22442;DHT22;11388;54.456;9.752;2023-02-16T14:24:51;8.10;99.90
22442;DHT22;11388;54.456;9.752;2023-02-16T14:38:36;8.00;99.90
22442;DHT22;11388;54.456;9.752;2023-02-16T14:43:49;7.90;99.90
22442;DHT22;11388;54.456;9.752;2023-02-16T15:03:02;7.80;99.90
22442;DHT22;11388;54.456;9.752;2023-02-16T15:05:32;7.70;99.90
22442;DHT22;11388;54.456;9.752;2023-02-16T15:08:22;7.60;99.90
22442;DHT22;11388;54.456;9.752;2023-02-16T15:10:52;7.70;99.90
22442;DHT22;11388;54.456;9.752;2023-02-16T15:13:25;7.60;99.90
22442;DHT22;11388;54.456;9.752;2023-02-16T15:15:54;7.70;99.90
22442;DHT22;11388;54.456;9.752;2023-02-16T15:18:23;7.80;99.90
22442;DHT22;11388;54.456;9.752;2023-02-16T15:20:51;7.80;99.90
22442;DHT22;11388;54.456;9.752;2023-02-16T15:23:26;7.80;99.90
22442;DHT22;11388;54.456;9.752;2023-02-16T15:28:22;8.00;99.90
22442;DHT22;11388;54.456;9.752;2023-02-16T15:30:54;7.80;99.90
22442;DHT22;11388;54.456;9.752;2023-02-16T15:33:36;7.80;99.90
22442;DHT22;11388;54.456;9.752;2023-02-16T15:36:05;7.90;99.90
22442;DHT22;11388;54.456;9.752;2023-02-16T15:39:01;7.90;99.90
22442;DHT22;11388;54.456;9.752;2023-02-16T15:41:33;7.90;99.90
22442;DHT22;11388;54.456;9.752;2023-02-16T15:44:01;7.80;99.90
22442;DHT22;11388;54.456;9.752;2023-02-16T15:46:32;8.00;99.90
22442;DHT22;11388;54.456;9.752;2023-02-16T15:49:20;7.90;99.90
22442;DHT22;11388;54.456;9.752;2023-02-16T15:51:44;8.00;99.90
22442;DHT22;11388;54.456;9.752;2023-02-16T15:54:25;8.00;99.90
22442;DHT22;11388;54.456;9.752;2023-02-16T15:57:13;7.90;99.90
22442;DHT22;11388;54.456;9.752;2023-02-16T15:59:46;7.90;99.90
22442;DHT22;11388;54.456;9.752;2023-02-16T16:04:45;7.90;99.90
22442;DHT22;11388;54.456;9.752;2023-02-16T16:07:14;8.00;99.90
22442;DHT22;11388;54.456;9.752;2023-02-16T16:09:42;8.00;99.90
22442;DHT22;11388;54.456;9.752;2023-02-16T16:12:11;8.00;99.90
22442;DHT22;11388;54.456;9.752;2023-02-16T16:14:40;8.00;99.90
22442;DHT22;11388;54.456;9.752;2023-02-16T16:17:12;8.10;99.90
22442;DHT22;11388;54.456;9.752;2023-02-16T16:19:40;8.10;99.90
22442;DHT22;11388;54.456;9.752;2023-02-16T16:22:36;8.00;99.90
22442;DHT22;11388;54.456;9.752;2023-02-16T16:25:28;8.10;99.90
22442;DHT22;11388;54.456;9.752;2023-02-16T16:27:54;8.10;99.90
22442;DHT22;11388;54.456;9.752;2023-02-16T16:33:07;8.10;99.90
22442;DHT22;11388;54.456;9.752;2023-02-16T16:37:59;8.00;99.90
22442;DHT22;11388;54.456;9.752;2023-02-16T16:40:29;8.20;99.90
22442;DHT22;11388;54.456;9.752;2023-02-16T16:50:37;8.30;99.90
22442;DHT22;11388;54.456;9.752;2023-02-16T16:55:49;8.20;99.90
22442;DHT22;11388;54.456;9.752;2023-02-16T16:58:15;8.20;99.90
22442;DHT22;11388;54.456;9.752;2023-02-16T17:00:40;8.20;99.90
22442;DHT22;11388;54.456;9.752;2023-02-16T17:03:10;8.10;99.90
22442;DHT22;11388;54.456;9.752;2023-02-16T17:05:38;8.10;99.90
22442;DHT22;11388;54.456;9.752;2023-02-16T17:08:04;8.10;99.90
22442;DHT22;11388;54.456;9.752;2023-02-16T17:10:30;8.10;99.90
22442;DHT22;11388;54.456;9.752;2023-02-16T17:12:57;8.20;99.90
22442;DHT22;11388;54.456;9.752;2023-02-16T17:18:02;8.20;99.90
22442;DHT22;11388;54.456;9.752;2023-02-16T17:20:28;8.20;99.90
22442;DHT22;11388;54.456;9.752;2023-02-16T17:22:54;8.20;99.90
22442;DHT22;11388;54.456;9.752;2023-02-16T17:25:19;8.20;99.90
22442;DHT22;11388;54.456;9.752;2023-02-16T17:27:45;8.30;99.90
22442;DHT22;11388;54.456;9.752;2023-02-16T17:30:11;8.20;99.90
22442;DHT22;11388;54.456;9.752;2023-02-16T17:32:38;8.40;99.90
22442;DHT22;11388;54.456;9.752;2023-02-16T17:35:03;8.40;99.90
22442;DHT22;11388;54.456;9.752;2023-02-16T17:37:31;8.40;99.90
22442;DHT22;11388;54.456;9.752;2023-02-16T17:40:00;8.50;99.90
22442;DHT22;11388;54.456;9.752;2023-02-16T17:42:25;8.50;99.90
22442;DHT22;11388;54.456;9.752;2023-02-16T17:44:51;8.40;99.90
22442;DHT22;11388;54.456;9.752;2023-02-16T17:47:16;8.40;99.90
22442;DHT22;11388;54.456;9.752;2023-02-16T17:49:42;8.50;99.90
22442;DHT22;11388;54.456;9.752;2023-02-16T17:52:11;8.50;99.90
22442;DHT22;11388;54.456;9.752;2023-02-16T17:54:37;8.60;99.90
22442;DHT22;11388;54.456;9.752;2023-02-16T17:57:03;8.50;99.90
22442;DHT22;11388;54.456;9.752;2023-02-16T17:59:29;8.50;99.90
22442;DHT22;11388;54.456;9.752;2023-02-16T18:01:55;8.50;99.90
22442;DHT22;11388;54.456;9.752;2023-02-16T18:04:21;8.50;99.90
22442;DHT22;11388;54.456;9.752;2023-02-16T18:06:47;8.60;99.90
22442;DHT22;11388;54.456;9.752;2023-02-16T18:09:16;8.60;99.90
22442;DHT22;11388;54.456;9.752;2023-02-16T18:11:47;8.60;99.90
22442;DHT22;11388;54.456;9.752;2023-02-16T18:14:13;8.60;99.90
22442;DHT22;11388;54.456;9.752;2023-02-16T18:16:39;8.60;99.90
22442;DHT22;11388;54.456;9.752;2023-02-16T18:19:05;8.70;99.90
22442;DHT22;11388;54.456;9.752;2023-02-16T18:21:33;8.70;99.90
22442;DHT22;11388;54.456;9.752;2023-02-16T18:23:59;8.60;99.90
22442;DHT22;11388;54.456;9.752;2023-02-16T18:26:24;8.60;99.90
22442;DHT22;11388;54.456;9.752;2023-02-16T18:28:52;8.50;99.90
22442;DHT22;11388;54.456;9.752;2023-02-16T18:31:18;8.50;99.90
22442;DHT22;11388;54.456;9.752;2023-02-16T18:33:44;8.50;99.90
22442;DHT22;11388;54.456;9.752;2023-02-16T18:36:11;8.60;99.90
22442;DHT22;11388;54.456;9.752;2023-02-16T18:38:37;8.60;99.90
22442;DHT22;11388;54.456;9.752;2023-02-16T18:41:04;8.50;99.90
22442;DHT22;11388;54.456;9.752;2023-02-16T18:43:29;8.40;99.90
22442;DHT22;11388;54.456;9.752;2023-02-16T18:45:55;8.30;99.90
22442;DHT22;11388;54.456;9.752;2023-02-16T18:48:21;8.30;99.90
22442;DHT22;11388;54.456;9.752;2023-02-16T18:50:47;8.30;99.90
22442;DHT22;11388;54.456;9.752;2023-02-16T18:53:13;8.30;99.90
22442;DHT22;11388;54.456;9.752;2023-02-16T18:55:38;8.20;99.90
22442;DHT22;11388;54.456;9.752;2023-02-16T18:58:05;8.20;99.90
22442;DHT22;11388;54.456;9.752;2023-02-16T19:00:31;8.20;99.90
22442;DHT22;11388;54.456;9.752;2023-02-16T19:02:56;8.20;99.90
22442;DHT22;11388;54.456;9.752;2023-02-16T19:05:23;8.30;99.90
22442;DHT22;11388;54.456;9.752;2023-02-16T19:07:48;8.40;99.90
22442;DHT22;11388;54.456;9.752;2023-02-16T19:10:14;8.40;99.90